Time;durP1;ratioP1;P1;durP2;ratioP2;P2;SDS_P1;SDS_P2;PMS_P1;PMS_P2;Temp;Humidity;BMP_temperature;BMP_pressure;BME280_temperature;BME280_humidity;BME280_pressure;Samples;Min_cycle;Max_cycle;Signal;HPM_P1;HPM_P2
2022/06/17 00:00:54;;;;;;;8.70;3.85;;;;;;;;;;5056378;28;20082;-76
2022/06/17 00:03:20;;;;;;;6.93;3.70;;;;;;;;;;5053869;28;20036;-77
2022/06/17 00:05:46;;;;;;;7.18;3.90;;;;;;;;;;5040527;28;20032;-76
2022/06/17 00:08:45;;;;;;;46.58;5.82;;;;;;;;;;5037095;28;20037;-75
2022/06/17 00:11:16;;;;;;;23.65;4.20;;;;;;;;;;5027861;28;20037;-75
2022/06/17 00:13:41;;;;;;;10.23;4.00;;;;;;;;;;5045317;28;20040;-75
2022/06/17 00:16:11;;;;;;;13.25;4.00;;;;;;;;;;5045210;28;20045;-76
2022/06/17 00:18:37;;;;;;;6.82;4.03;;;;;;;;;;5045433;28;20033;-76
2022/06/17 00:21:02;;;;;;;7.63;4.15;;;;;;;;;;5046219;28;20027;-76
2022/06/17 00:23:28;;;;;;;8.80;4.20;;;;;;;;;;5045695;28;20154;-76
2022/06/17 00:25:54;;;;;;;10.05;4.00;;;;;;;;;;5045855;28;20125;-76
2022/06/17 00:28:21;;;;;;;6.38;4.00;;;;;;;;;;5045621;28;20033;-77
2022/06/17 00:30:47;;;;;;;6.70;3.95;;;;;;;;;;5045512;28;20095;-76
2022/06/17 00:33:14;;;;;;;6.22;3.88;;;;;;;;;;5045790;28;20048;-76
2022/06/17 00:35:44;;;;;;;9.13;4.07;;;;;;;;;;5046352;28;20018;-76
2022/06/17 00:38:14;;;;;;;6.95;3.95;;;;;;;;;;5046090;28;20035;-76
2022/06/17 00:40:40;;;;;;;9.65;4.00;;;;;;;;;;5046090;28;20064;-76
2022/06/17 00:43:12;;;;;;;15.30;4.40;;;;;;;;;;5051544;28;20597;-76
2022/06/17 00:45:50;;;;;;;14.13;4.40;;;;;;;;;;5052613;28;20029;-77
2022/06/17 00:48:23;;;;;;;11.15;4.03;;;;;;;;;;5036639;28;20580;-76
2022/06/17 00:50:58;;;;;;;8.32;3.90;;;;;;;;;;5033795;28;20032;-76
2022/06/17 00:53:33;;;;;;;8.75;4.30;;;;;;;;;;5037787;28;20033;-76
2022/06/17 00:56:11;;;;;;;5.32;3.75;;;;;;;;;;5035049;28;20036;-76
2022/06/17 00:59:04;;;;;;;5.85;3.78;;;;;;;;;;5030390;28;20140;-76
2022/06/17 01:01:58;;;;;;;7.43;4.10;;;;;;;;;;5030215;28;20080;-75
2022/06/17 01:04:37;;;;;;;6.72;3.80;;;;;;;;;;5034037;28;20042;-75
2022/06/17 01:07:11;;;;;;;6.30;3.78;;;;;;;;;;5028961;28;20034;-75
2022/06/17 01:12:25;;;;;;;9.30;3.80;;;;;;;;;;5040822;28;20093;-76
2022/06/17 01:14:52;;;;;;;6.93;3.70;;;;;;;;;;5040630;28;20063;-75
2022/06/17 01:17:18;;;;;;;5.60;3.30;;;;;;;;;;5041168;28;20025;-76
2022/06/17 01:19:54;;;;;;;7.93;3.80;;;;;;;;;;5041956;28;20072;-77
2022/06/17 01:22:42;;;;;;;6.38;3.80;;;;;;;;;;5041659;28;20025;-76
2022/06/17 01:25:07;;;;;;;7.50;3.63;;;;;;;;;;5038402;28;20067;-75
2022/06/17 01:27:46;;;;;;;6.43;3.70;;;;;;;;;;5041008;28;20018;-76
2022/06/17 01:30:21;;;;;;;5.85;3.60;;;;;;;;;;5041393;28;20037;-76
2022/06/17 01:32:58;;;;;;;;;;;;;;;;;;5041514;28;20041;-76
2022/06/17 01:35:28;;;;;;;5.93;3.65;;;;;;;;;;5040673;28;20303;-77
2022/06/17 01:37:55;;;;;;;6.63;3.55;;;;;;;;;;5041400;28;20021;-76
2022/06/17 01:40:21;;;;;;;6.07;3.72;;;;;;;;;;5041211;28;20029;-76
2022/06/17 01:42:48;;;;;;;8.32;3.80;;;;;;;;;;5041106;28;20124;-76
2022/06/17 01:45:14;;;;;;;5.70;3.58;;;;;;;;;;5037586;28;20245;-76
2022/06/17 01:47:42;;;;;;;7.43;3.60;;;;;;;;;;5041225;28;20206;-76
2022/06/17 01:50:13;;;;;;;6.20;3.65;;;;;;;;;;5041710;28;20022;-76
2022/06/17 01:52:44;;;;;;;5.55;3.20;;;;;;;;;;5050265;28;20364;-76
2022/06/17 01:55:13;;;;;;;4.88;3.45;;;;;;;;;;5036614;28;20059;-76
2022/06/17 01:57:48;;;;;;;6.53;3.40;;;;;;;;;;5039197;28;20036;-77
2022/06/17 02:00:21;;;;;;;5.30;3.35;;;;;;;;;;5040833;28;20026;-75
2022/06/17 02:02:52;;;;;;;6.88;3.75;;;;;;;;;;5040036;28;20225;-75
2022/06/17 02:05:19;;;;;;;5.57;3.20;;;;;;;;;;5036778;28;20021;-76
2022/06/17 02:07:52;;;;;;;6.30;3.22;;;;;;;;;;5041120;28;20401;-76
2022/06/17 02:10:20;;;;;;;6.70;3.10;;;;;;;;;;5040688;28;20021;-76
2022/06/17 02:12:46;;;;;;;5.47;3.03;;;;;;;;;;5036697;28;20021;-76
2022/06/17 02:15:12;;;;;;;5.40;2.97;;;;;;;;;;5043042;28;20037;-75
2022/06/17 02:17:42;;;;;;;6.57;3.40;;;;;;;;;;5039423;28;20056;-76
2022/06/17 02:20:10;;;;;;;6.50;3.15;;;;;;;;;;5041910;28;20324;-76
2022/06/17 02:22:36;;;;;;;5.10;3.00;;;;;;;;;;5043023;28;20314;-76
2022/06/17 02:25:07;;;;;;;7.60;3.10;;;;;;;;;;5039197;28;20041;-76
2022/06/17 02:27:34;;;;;;;5.47;3.10;;;;;;;;;;5041155;28;20033;-75
2022/06/17 02:30:01;;;;;;;4.43;3.13;;;;;;;;;;5040835;28;20080;-75
2022/06/17 02:32:28;;;;;;;4.50;3.10;;;;;;;;;;5033655;28;20371;-76
2022/06/17 02:35:12;;;;;;;4.68;3.03;;;;;;;;;;5037040;28;20049;-75
2022/06/17 02:37:37;;;;;;;6.47;3.30;;;;;;;;;;5037291;28;20096;-76
2022/06/17 02:40:05;;;;;;;5.68;3.33;;;;;;;;;;5038954;28;20024;-76
2022/06/17 02:42:35;;;;;;;26.45;4.40;;;;;;;;;;5039111;28;20365;-76
2022/06/17 02:45:20;;;;;;;55.17;5.00;;;;;;;;;;5040168;28;20024;-76
2022/06/17 02:47:46;;;;;;;;;;;;;;;;;;5040362;28;20096;-76
2022/06/17 02:50:18;;;;;;;21.90;3.85;;;;;;;;;;5040066;28;19928;-75
2022/06/17 02:52:44;;;;;;;14.25;3.63;;;;;;;;;;5038366;28;20033;-76
2022/06/17 02:55:15;;;;;;;15.27;3.20;;;;;;;;;;5037699;28;20343;-75
2022/06/17 02:57:45;;;;;;;13.32;3.35;;;;;;;;;;5037803;28;20048;-76
2022/06/17 03:00:16;;;;;;;11.60;3.30;;;;;;;;;;5038792;28;20088;-76
2022/06/17 03:02:49;;;;;;;17.25;3.80;;;;;;;;;;5039936;28;20336;-75
2022/06/17 03:05:22;;;;;;;13.88;3.55;;;;;;;;;;5038935;28;20045;-76
2022/06/17 03:07:49;;;;;;;13.57;3.83;;;;;;;;;;5039364;28;20025;-75
2022/06/17 03:10:17;;;;;;;13.05;3.22;;;;;;;;;;5039937;28;20413;-76
2022/06/17 03:12:44;;;;;;;13.90;3.10;;;;;;;;;;5034812;28;20036;-76
2022/06/17 03:15:16;;;;;;;7.30;3.15;;;;;;;;;;5039970;28;20025;-76
2022/06/17 03:17:44;;;;;;;12.82;3.30;;;;;;;;;;5039947;28;20096;-75
2022/06/17 03:20:13;;;;;;;5.78;3.05;;;;;;;;;;5039994;28;20080;-75
2022/06/17 03:22:39;;;;;;;8.00;3.30;;;;;;;;;;5039464;28;20033;-75
2022/06/17 03:25:18;;;;;;;8.50;3.38;;;;;;;;;;5037640;28;20028;-76
2022/06/17 03:27:49;;;;;;;8.02;3.30;;;;;;;;;;5035776;28;20218;-75
2022/06/17 03:30:32;;;;;;;6.00;3.00;;;;;;;;;;5035973;28;20021;-76
2022/06/17 03:33:10;;;;;;;6.68;3.42;;;;;;;;;;5036657;28;20033;-75
2022/06/17 03:35:39;;;;;;;5.95;3.25;;;;;;;;;;5037143;28;20128;-75
2022/06/17 03:38:24;;;;;;;5.82;3.30;;;;;;;;;;5039387;28;20025;-75
2022/06/17 03:40:54;;;;;;;6.70;3.33;;;;;;;;;;5037597;28;20031;-75
2022/06/17 03:43:28;;;;;;;7.00;3.40;;;;;;;;;;5038962;28;20037;-75
2022/06/17 03:46:01;;;;;;;5.80;3.28;;;;;;;;;;5039864;28;20021;-75
2022/06/17 03:48:52;;;;;;;6.65;3.20;;;;;;;;;;5035441;28;20270;-76
2022/06/17 03:51:21;;;;;;;5.30;3.15;;;;;;;;;;5039775;28;20044;-75
2022/06/17 03:53:48;;;;;;;8.65;3.40;;;;;;;;;;5038960;28;20052;-75
2022/06/17 03:56:18;;;;;;;5.32;3.55;;;;;;;;;;5039356;28;20392;-76
2022/06/17 03:58:45;;;;;;;6.00;3.22;;;;;;;;;;5037719;28;20434;-76
2022/06/17 04:01:16;;;;;;;5.45;3.20;;;;;;;;;;5039595;28;20264;-76
2022/06/17 04:03:49;;;;;;;8.05;3.90;;;;;;;;;;5037616;28;20069;-76
2022/06/17 04:06:18;;;;;;;6.35;3.50;;;;;;;;;;5034458;28;20025;-76
2022/06/17 04:08:50;;;;;;;6.50;3.72;;;;;;;;;;5039190;28;20026;-76
2022/06/17 04:11:16;;;;;;;6.82;3.60;;;;;;;;;;5039289;28;20013;-76
2022/06/17 04:13:42;;;;;;;6.63;3.40;;;;;;;;;;5038873;28;20977;-76
2022/06/17 04:16:45;;;;;;;13.90;3.72;;;;;;;;;;5039374;28;20053;-75
2022/06/17 04:19:18;;;;;;;16.00;4.10;;;;;;;;;;5041289;28;20025;-76
2022/06/17 04:21:43;;;;;;;11.88;3.75;;;;;;;;;;5042661;28;20021;-75
2022/06/17 04:24:16;;;;;;;17.23;4.25;;;;;;;;;;5043321;28;20021;-76
2022/06/17 04:26:43;;;;;;;13.35;3.80;;;;;;;;;;5042332;28;20021;-76
2022/06/17 04:29:19;;;;;;;11.35;3.80;;;;;;;;;;5042827;28;20018;-75
2022/06/17 04:31:47;;;;;;;18.60;4.25;;;;;;;;;;5038169;28;20099;-76
2022/06/17 04:34:15;;;;;;;37.25;4.32;;;;;;;;;;5042161;28;20044;-75
2022/06/17 04:36:50;;;;;;;129.25;7.07;;;;;;;;;;5042168;28;20025;-76
2022/06/17 04:39:29;;;;;;;100.03;7.43;;;;;;;;;;5042798;28;20029;-76
2022/06/17 04:41:59;;;;;;;48.10;5.32;;;;;;;;;;5041325;28;20041;-76
2022/06/17 04:44:24;;;;;;;44.80;5.07;;;;;;;;;;5042679;28;20224;-75
2022/06/17 04:46:58;;;;;;;35.35;4.80;;;;;;;;;;5042162;28;20041;-77
2022/06/17 04:49:26;;;;;;;32.15;4.60;;;;;;;;;;5040779;28;20088;-76
2022/06/17 04:51:58;;;;;;;15.25;4.20;;;;;;;;;;5048094;28;20029;-75
2022/06/17 04:54:24;;;;;;;14.38;4.25;;;;;;;;;;5042043;28;20063;-75
2022/06/17 04:56:51;;;;;;;10.48;4.03;;;;;;;;;;5038635;28;20056;-75
2022/06/17 04:59:44;;;;;;;19.85;4.45;;;;;;;;;;5043500;28;20030;-76
2022/06/17 05:02:21;;;;;;;15.50;4.25;;;;;;;;;;5034216;28;20048;-75
2022/06/17 05:04:50;;;;;;;11.52;3.97;;;;;;;;;;5043506;28;20056;-75
2022/06/17 05:07:16;;;;;;;19.75;4.20;;;;;;;;;;5054232;28;20059;-76
2022/06/17 05:09:45;;;;;;;24.67;4.65;;;;;;;;;;5057238;28;20276;-77
2022/06/17 05:12:25;;;;;;;15.23;4.28;;;;;;;;;;5041100;28;20021;-75
2022/06/17 05:15:06;;;;;;;17.10;3.95;;;;;;;;;;5023630;28;20037;-76
2022/06/17 05:17:32;;;;;;;10.55;4.18;;;;;;;;;;5023612;28;20325;-76
2022/06/17 05:19:57;;;;;;;14.60;4.40;;;;;;;;;;5023266;28;20089;-77
2022/06/17 05:22:36;;;;;;;19.58;4.07;;;;;;;;;;5039803;28;20036;-75
2022/06/17 05:25:05;;;;;;;8.45;3.85;;;;;;;;;;5061038;28;20056;-75
2022/06/17 05:27:30;;;;;;;11.07;3.80;;;;;;;;;;5048308;28;20075;-76
2022/06/17 05:29:55;;;;;;;6.88;3.60;;;;;;;;;;5043052;28;20244;-76
2022/06/17 05:32:22;;;;;;;6.57;3.35;;;;;;;;;;5043241;28;20228;-76
2022/06/17 05:34:49;;;;;;;11.82;4.05;;;;;;;;;;5042852;28;20321;-76
2022/06/17 05:37:15;;;;;;;5.35;3.40;;;;;;;;;;5042889;28;20025;-75
2022/06/17 05:39:41;;;;;;;5.78;3.40;;;;;;;;;;5042760;28;20365;-76
2022/06/17 05:42:07;;;;;;;7.93;3.75;;;;;;;;;;5049111;28;20044;-76
2022/06/17 05:44:33;;;;;;;7.10;3.60;;;;;;;;;;5040388;28;20063;-76
2022/06/17 05:46:58;;;;;;;8.02;3.83;;;;;;;;;;5047433;28;20032;-77
2022/06/17 05:49:24;;;;;;;10.13;3.60;;;;;;;;;;5044075;28;20029;-76
2022/06/17 05:51:50;;;;;;;6.13;3.72;;;;;;;;;;5042236;28;20040;-76
2022/06/17 05:54:15;;;;;;;8.60;3.88;;;;;;;;;;5062039;28;20025;-76
2022/06/17 05:56:41;;;;;;;10.77;3.60;;;;;;;;;;5062138;28;20045;-76
2022/06/17 05:59:06;;;;;;;6.45;3.78;;;;;;;;;;5061600;28;20029;-76
2022/06/17 06:01:32;;;;;;;5.20;3.60;;;;;;;;;;5054880;28;20070;-76
2022/06/17 06:03:57;;;;;;;8.65;3.60;;;;;;;;;;5042397;28;20032;-76
2022/06/17 06:06:22;;;;;;;6.93;3.80;;;;;;;;;;5042104;28;20029;-76
2022/06/17 06:08:48;;;;;;;6.35;4.03;;;;;;;;;;5055540;28;20025;-76
2022/06/17 06:11:13;;;;;;;5.93;3.60;;;;;;;;;;5061983;28;20020;-76
2022/06/17 06:13:39;;;;;;;9.73;3.60;;;;;;;;;;5041734;28;20029;-76
2022/06/17 06:16:04;;;;;;;9.23;3.55;;;;;;;;;;5042117;28;20018;-76
2022/06/17 06:18:39;;;;;;;6.95;3.60;;;;;;;;;;5052745;28;20044;-76
2022/06/17 06:21:05;;;;;;;8.45;3.35;;;;;;;;;;5061897;28;20234;-76
2022/06/17 06:23:35;;;;;;;6.13;3.35;;;;;;;;;;5061823;28;20031;-76
2022/06/17 06:26:07;;;;;;;6.85;3.60;;;;;;;;;;5056341;28;20329;-76
2022/06/17 06:28:34;;;;;;;7.82;3.90;;;;;;;;;;5041829;28;20036;-76
2022/06/17 06:31:04;;;;;;;10.88;3.35;;;;;;;;;;5041935;28;20325;-76
2022/06/17 06:33:30;;;;;;;6.78;3.50;;;;;;;;;;5041593;28;20037;-76
2022/06/17 06:35:55;;;;;;;7.55;3.58;;;;;;;;;;5041471;28;20029;-76
2022/06/17 06:38:20;;;;;;;6.50;3.35;;;;;;;;;;5045297;28;20020;-76
2022/06/17 06:40:47;;;;;;;7.90;3.40;;;;;;;;;;5060448;28;20036;-77
2022/06/17 06:43:20;;;;;;;8.18;3.55;;;;;;;;;;5061147;28;20055;-77
2022/06/17 06:45:48;;;;;;;5.03;3.30;;;;;;;;;;5061651;28;20088;-78
2022/06/17 06:48:16;;;;;;;6.75;3.20;;;;;;;;;;5061518;28;20025;-77
2022/06/17 06:50:43;;;;;;;10.50;3.50;;;;;;;;;;5040787;28;20032;-77
2022/06/17 06:53:08;;;;;;;6.82;3.40;;;;;;;;;;5040077;28;20278;-77
2022/06/17 06:55:34;;;;;;;9.27;3.88;;;;;;;;;;5040435;28;20017;-77
2022/06/17 06:58:04;;;;;;;7.28;3.50;;;;;;;;;;5040366;28;20060;-77
2022/06/17 07:00:34;;;;;;;6.85;3.45;;;;;;;;;;5040736;28;20021;-77
2022/06/17 07:02:59;;;;;;;9.23;3.63;;;;;;;;;;5042440;28;20037;-77
2022/06/17 07:05:25;;;;;;;7.07;3.58;;;;;;;;;;5043645;28;20036;-77
2022/06/17 07:07:50;;;;;;;5.05;3.30;;;;;;;;;;5040491;28;20249;-78
2022/06/17 07:10:22;;;;;;;9.88;3.83;;;;;;;;;;5040478;28;20025;-78
2022/06/17 07:12:48;;;;;;;6.97;3.47;;;;;;;;;;5045906;28;20088;-77
2022/06/17 07:15:14;;;;;;;6.03;3.55;;;;;;;;;;5057291;28;20024;-77
2022/06/17 07:17:39;;;;;;;8.85;3.60;;;;;;;;;;5040566;28;20037;-76
2022/06/17 07:20:06;;;;;;;7.78;3.10;;;;;;;;;;5043451;28;20025;-77
2022/06/17 07:22:31;;;;;;;7.45;3.75;;;;;;;;;;5039784;28;20052;-76
2022/06/17 07:24:57;;;;;;;5.40;3.20;;;;;;;;;;5038666;28;20022;-77
2022/06/17 07:27:22;;;;;;;7.35;3.60;;;;;;;;;;5052117;28;20035;-77
2022/06/17 07:29:47;;;;;;;8.82;3.58;;;;;;;;;;5040721;28;20274;-79
2022/06/17 07:32:13;;;;;;;6.97;3.63;;;;;;;;;;5037857;28;20049;-79
2022/06/17 07:34:38;;;;;;;9.85;3.70;;;;;;;;;;5037336;28;20029;-78
2022/06/17 07:39:53;;;;;;;10.05;3.60;;;;;;;;;;5040973;28;20036;-77
2022/06/17 07:42:19;;;;;;;7.63;3.63;;;;;;;;;;5040328;28;20033;-77
2022/06/17 07:44:44;;;;;;;12.40;3.88;;;;;;;;;;5048393;28;20280;-78
2022/06/17 07:47:15;;;;;;;6.63;3.70;;;;;;;;;;5060214;28;20041;-79
2022/06/17 07:49:40;;;;;;;9.98;4.00;;;;;;;;;;5050824;28;20210;-78
2022/06/17 07:52:06;;;;;;;11.43;4.03;;;;;;;;;;5047255;28;20048;-77
2022/06/17 07:54:31;;;;;;;8.63;3.80;;;;;;;;;;5063180;28;20029;-77
2022/06/17 07:56:56;;;;;;;6.93;3.60;;;;;;;;;;5046711;28;20037;-78
2022/06/17 07:59:22;;;;;;;9.82;4.10;;;;;;;;;;5044833;28;20099;-77
2022/06/17 08:01:48;;;;;;;8.70;3.63;;;;;;;;;;5047198;28;20048;-78
2022/06/17 08:04:13;;;;;;;12.20;3.63;;;;;;;;;;5044570;28;20057;-77
2022/06/17 08:06:38;;;;;;;12.43;3.60;;;;;;;;;;5044684;28;20028;-77
2022/06/17 08:09:04;;;;;;;7.60;3.85;;;;;;;;;;5044556;28;20279;-77
2022/06/17 08:11:29;;;;;;;7.85;3.53;;;;;;;;;;5044262;28;20278;-77
2022/06/17 08:13:54;;;;;;;9.10;3.38;;;;;;;;;;5043825;28;20249;-77
2022/06/17 08:16:20;;;;;;;9.55;3.40;;;;;;;;;;5043652;28;20089;-76
2022/06/17 08:18:45;;;;;;;7.68;3.33;;;;;;;;;;5044206;28;20037;-77
2022/06/17 08:21:12;;;;;;;8.00;3.58;;;;;;;;;;5059593;28;20024;-77
2022/06/17 08:23:37;;;;;;;6.63;3.50;;;;;;;;;;5057764;28;20052;-76
2022/06/17 08:26:03;;;;;;;10.57;3.38;;;;;;;;;;5044425;28;20085;-76
2022/06/17 08:28:29;;;;;;;7.72;3.22;;;;;;;;;;5042547;28;20206;-77
2022/06/17 08:30:55;;;;;;;7.85;3.10;;;;;;;;;;5049205;28;20029;-77
2022/06/17 08:33:29;;;;;;;5.25;3.10;;;;;;;;;;5059025;28;20037;-76
2022/06/17 08:36:04;;;;;;;10.23;3.43;;;;;;;;;;5063937;28;20021;-77
2022/06/17 08:38:32;;;;;;;6.55;3.08;;;;;;;;;;5063715;28;20048;-76
2022/06/17 08:41:04;;;;;;;10.98;3.60;;;;;;;;;;5048546;28;20029;-78
2022/06/17 08:44:03;;;;;;;15.10;3.47;;;;;;;;;;5060117;28;20371;-78
2022/06/17 08:46:50;;;;;;;7.30;3.55;;;;;;;;;;5064117;28;20025;-77
2022/06/17 08:49:22;;;;;;;7.55;3.30;;;;;;;;;;5063005;28;20036;-78
2022/06/17 08:52:23;;;;;;;8.50;3.42;;;;;;;;;;5056183;28;20348;-77
2022/06/17 08:55:21;;;;;;;6.13;3.20;;;;;;;;;;5063628;28;20029;-78
2022/06/17 08:58:07;;;;;;;12.30;3.50;;;;;;;;;;5043668;28;20029;-78
2022/06/17 09:00:44;;;;;;;9.50;3.13;;;;;;;;;;5063391;28;20025;-78
2022/06/17 09:03:27;;;;;;;8.68;3.97;;;;;;;;;;5053403;28;20313;-78
2022/06/17 09:06:17;;;;;;;9.02;3.50;;;;;;;;;;5042734;28;20187;-78
2022/06/17 09:09:14;;;;;;;9.95;3.80;;;;;;;;;;5043362;28;20075;-78
2022/06/17 09:11:51;;;;;;;9.82;3.60;;;;;;;;;;5023061;28;20036;-78
2022/06/17 09:14:53;;;;;;;13.73;3.35;;;;;;;;;;5041208;28;20355;-79
2022/06/17 09:17:37;;;;;;;7.95;3.35;;;;;;;;;;5042472;28;20056;-80
2022/06/17 09:20:06;;;;;;;12.13;3.30;;;;;;;;;;5043431;28;20036;-81
2022/06/17 09:22:40;;;;;;;7.22;3.40;;;;;;;;;;5042698;28;20025;-79
2022/06/17 09:25:10;;;;;;;7.30;3.30;;;;;;;;;;5043360;28;20037;-80
2022/06/17 09:27:43;;;;;;;6.80;3.30;;;;;;;;;;5042695;28;20069;-79
2022/06/17 09:30:17;;;;;;;6.57;3.20;;;;;;;;;;5046677;28;20087;-79
2022/06/17 09:33:07;;;;;;;7.93;3.03;;;;;;;;;;5042019;28;20044;-78
2022/06/17 09:35:40;;;;;;;6.45;2.90;;;;;;;;;;5043327;28;20052;-79
2022/06/17 09:38:12;;;;;;;9.98;3.20;;;;;;;;;;5055566;28;20332;-79
2022/06/17 09:41:15;;;;;;;7.38;2.90;;;;;;;;;;5051904;28;20056;-78
2022/06/17 09:44:14;;;;;;;10.68;3.40;;;;;;;;;;5042441;28;20340;-78
2022/06/17 09:47:03;;;;;;;7.70;3.13;;;;;;;;;;5041786;28;20041;-78
2022/06/17 09:49:38;;;;;;;6.38;3.10;;;;;;;;;;5025756;28;20033;-79
2022/06/17 09:52:15;;;;;;;8.25;2.95;;;;;;;;;;5022863;28;20049;-78
2022/06/17 09:54:46;;;;;;;5.82;3.08;;;;;;;;;;5043290;28;20292;-77
2022/06/17 09:57:27;;;;;;;7.75;3.22;;;;;;;;;;5062361;28;20066;-78
2022/06/17 10:00:07;;;;;;;6.78;3.05;;;;;;;;;;5060174;28;20313;-79
2022/06/17 10:02:35;;;;;;;8.50;3.13;;;;;;;;;;5044772;28;20053;-78
2022/06/17 10:05:12;;;;;;;8.35;3.03;;;;;;;;;;5042602;28;20025;-80
2022/06/17 10:07:57;;;;;;;10.25;3.00;;;;;;;;;;5042383;28;20333;-79
2022/06/17 10:10:39;;;;;;;6.18;3.03;;;;;;;;;;5039832;28;20045;-81
2022/06/17 10:13:24;;;;;;;6.47;2.80;;;;;;;;;;5051802;28;20067;-80
2022/06/17 10:19:03;;;;;;;5.10;2.75;;;;;;;;;;5041465;28;19920;-78
2022/06/17 10:21:50;;;;;;;4.03;2.40;;;;;;;;;;5033028;28;20037;-86
2022/06/17 10:24:43;;;;;;;7.80;2.42;;;;;;;;;;5041876;28;20029;-83
2022/06/17 10:27:37;;;;;;;6.47;2.67;;;;;;;;;;5044351;28;20025;-81
2022/06/17 10:30:11;;;;;;;5.05;2.70;;;;;;;;;;5061706;28;20024;-79
2022/06/17 10:32:39;;;;;;;6.80;2.67;;;;;;;;;;5060904;28;20061;-80
2022/06/17 10:35:13;;;;;;;5.65;2.63;;;;;;;;;;5057960;28;20033;-80
2022/06/17 10:37:38;;;;;;;6.63;2.80;;;;;;;;;;5040758;28;20033;-78
2022/06/17 10:40:07;;;;;;;5.78;2.80;;;;;;;;;;5040843;28;20092;-78
2022/06/17 10:42:33;;;;;;;5.43;2.65;;;;;;;;;;5044552;28;20037;-81
2022/06/17 10:45:01;;;;;;;6.68;2.85;;;;;;;;;;5043449;28;20068;-79
2022/06/17 10:47:46;;;;;;;9.50;2.65;;;;;;;;;;5030541;28;20282;-79
2022/06/17 10:50:19;;;;;;;10.57;2.72;;;;;;;;;;5034302;28;20029;-80
2022/06/17 10:53:00;;;;;;;4.63;2.78;;;;;;;;;;5044231;28;20044;-77
2022/06/17 10:55:33;;;;;;;9.57;2.90;;;;;;;;;;5041023;28;20272;-76
2022/06/17 10:58:18;;;;;;;5.55;2.78;;;;;;;;;;5040946;28;20022;-79
2022/06/17 11:00:50;;;;;;;6.35;3.20;;;;;;;;;;5053794;28;20037;-80
2022/06/17 11:03:29;;;;;;;5.97;2.70;;;;;;;;;;5047013;28;20302;-78
2022/06/17 11:06:18;;;;;;;8.50;2.83;;;;;;;;;;5040471;28;20236;-78
2022/06/17 11:08:55;;;;;;;5.82;2.85;;;;;;;;;;5041442;28;20017;-78
2022/06/17 11:14:36;;;;;;;4.60;2.60;;;;;;;;;;5040679;28;20233;-79
2022/06/17 11:17:15;;;;;;;8.68;2.90;;;;;;;;;;5048425;28;20020;-79
2022/06/17 11:19:42;;;;;;;7.03;2.92;;;;;;;;;;5046101;28;20103;-80
2022/06/17 11:22:18;;;;;;;8.43;2.78;;;;;;;;;;5048872;28;20025;-79
2022/06/17 11:24:53;;;;;;;6.90;3.00;;;;;;;;;;5050905;28;20055;-76
2022/06/17 11:27:35;;;;;;;6.05;3.28;;;;;;;;;;5042936;28;20028;-79
2022/06/17 11:30:24;;;;;;;7.88;2.60;;;;;;;;;;5040119;28;20022;-78
2022/06/17 11:32:50;;;;;;;5.97;2.30;;;;;;;;;;5036565;28;20046;-79
2022/06/17 11:35:19;;;;;;;5.15;2.40;;;;;;;;;;5040510;28;20044;-78
2022/06/17 11:37:47;;;;;;;9.13;2.88;;;;;;;;;;5048527;28;20198;-80
2022/06/17 11:40:18;;;;;;;5.57;2.60;;;;;;;;;;5059112;28;20078;-78
2022/06/17 11:42:51;;;;;;;11.55;2.42;;;;;;;;;;5050795;28;20036;-81
2022/06/17 11:45:39;;;;;;;13.27;3.17;;;;;;;;;;5041284;28;20025;-79
2022/06/17 11:48:14;;;;;;;5.05;2.53;;;;;;;;;;5044373;28;20096;-79
2022/06/17 11:51:00;;;;;;;7.38;2.50;;;;;;;;;;5060689;28;20021;-80
2022/06/17 11:53:26;;;;;;;5.43;2.53;;;;;;;;;;5060630;28;20317;-81
2022/06/17 11:55:52;;;;;;;4.45;2.55;;;;;;;;;;5059848;28;20100;-80
2022/06/17 11:58:19;;;;;;;5.55;2.78;;;;;;;;;;5060647;28;20151;-82
2022/06/17 12:00:53;;;;;;;6.05;2.50;;;;;;;;;;5059945;28;20032;-86
2022/06/17 12:03:20;;;;;;;5.55;2.40;;;;;;;;;;5042446;28;20253;-79
2022/06/17 12:06:17;;;;;;;5.15;2.75;;;;;;;;;;5041665;28;20064;-83
2022/06/17 12:09:09;;;;;;;9.52;2.53;;;;;;;;;;5060590;28;20029;-81
2022/06/17 12:11:47;;;;;;;5.65;2.45;;;;;;;;;;5059727;28;20071;-85
2022/06/17 12:14:25;;;;;;;4.80;2.45;;;;;;;;;;5041048;28;20037;-83
2022/06/17 12:16:50;;;;;;;7.15;2.40;;;;;;;;;;5053190;28;20032;-82
2022/06/17 12:19:21;;;;;;;3.97;2.40;;;;;;;;;;5059351;28;20335;-81
2022/06/17 12:21:46;;;;;;;4.82;2.50;;;;;;;;;;5060366;28;20032;-81
2022/06/17 12:24:39;;;;;;;5.43;2.30;;;;;;;;;;5059427;28;20096;-84
2022/06/17 12:27:07;;;;;;;6.15;2.40;;;;;;;;;;5055665;28;20025;-81
2022/06/17 12:29:43;;;;;;;5.43;2.53;;;;;;;;;;5040526;28;20213;-79
2022/06/17 12:32:22;;;;;;;5.88;2.22;;;;;;;;;;5041166;28;20252;-79
2022/06/17 12:35:06;;;;;;;4.43;2.10;;;;;;;;;;5057403;28;20025;-80
2022/06/17 12:38:15;;;;;;;4.18;2.28;;;;;;;;;;5060533;28;20017;-82
2022/06/17 12:40:52;;;;;;;5.78;2.40;;;;;;;;;;5041223;28;20029;-82
2022/06/17 12:43:37;;;;;;;3.53;2.40;;;;;;;;;;5062771;28;20092;-79
2022/06/17 12:46:03;;;;;;;3.92;2.20;;;;;;;;;;5064224;28;20051;-80
2022/06/17 12:48:34;;;;;;;4.43;2.30;;;;;;;;;;5063374;28;20033;-79
2022/06/17 12:54:45;;;;;;;3.35;2.08;;;;;;;;;;5041573;28;20270;-81
2022/06/17 12:57:22;;;;;;;6.75;2.42;;;;;;;;;;5043648;28;20333;-81
2022/06/17 12:59:59;;;;;;;3.38;2.30;;;;;;;;;;5043560;28;20225;-81
2022/06/17 13:02:40;;;;;;;4.45;2.50;;;;;;;;;;5050356;28;20043;-80
2022/06/17 13:05:21;;;;;;;6.30;2.50;;;;;;;;;;5063965;28;20372;-79
2022/06/17 13:08:25;;;;;;;4.05;1.85;;;;;;;;;;5063725;28;20031;-78
2022/06/17 13:10:56;;;;;;;3.97;1.90;;;;;;;;;;5054611;28;20301;-79
2022/06/17 13:13:50;;;;;;;6.15;2.45;;;;;;;;;;5057824;28;20033;-78
2022/06/17 13:16:21;;;;;;;4.60;2.40;;;;;;;;;;5041275;28;20501;-77
2022/06/17 13:18:53;;;;;;;5.03;2.20;;;;;;;;;;5041020;28;20026;-78
2022/06/17 13:21:30;;;;;;;4.57;2.30;;;;;;;;;;5042240;28;20051;-79
2022/06/17 13:24:01;;;;;;;4.68;2.40;;;;;;;;;;5043524;28;20045;-79
2022/06/17 13:26:42;;;;;;;6.13;2.50;;;;;;;;;;5042797;28;20074;-80
2022/06/17 13:29:23;;;;;;;7.97;2.60;;;;;;;;;;5042892;28;20325;-79
2022/06/17 13:31:55;;;;;;;3.80;2.50;;;;;;;;;;5040433;28;20034;-78
2022/06/17 13:34:35;;;;;;;7.60;2.30;;;;;;;;;;5040733;28;20021;-80
2022/06/17 13:37:17;;;;;;;6.15;2.20;;;;;;;;;;5040694;28;20025;-80
2022/06/17 13:39:55;;;;;;;5.85;2.50;;;;;;;;;;5046317;28;20091;-79
2022/06/17 13:42:21;;;;;;;3.80;2.10;;;;;;;;;;5044247;28;20049;-79
2022/06/17 13:45:14;;;;;;;6.07;2.30;;;;;;;;;;5062817;28;20048;-79
2022/06/17 13:48:03;;;;;;;3.63;2.15;;;;;;;;;;5061108;28;20048;-79
2022/06/17 13:50:39;;;;;;;5.03;2.30;;;;;;;;;;5057844;28;20033;-77
2022/06/17 13:53:26;;;;;;;5.30;2.40;;;;;;;;;;5062395;28;20029;-80
2022/06/17 13:55:58;;;;;;;11.18;3.30;;;;;;;;;;5062440;28;20147;-79
2022/06/17 13:58:35;;;;;;;6.20;2.70;;;;;;;;;;5061593;28;20087;-80
2022/06/17 14:01:21;;;;;;;5.00;2.33;;;;;;;;;;5057937;28;20028;-79
2022/06/17 14:03:58;;;;;;;6.75;2.28;;;;;;;;;;5044439;28;20040;-79
2022/06/17 14:06:26;;;;;;;5.72;2.30;;;;;;;;;;5032959;28;20092;-80
2022/06/17 14:08:58;;;;;;;6.50;2.40;;;;;;;;;;5041050;28;20029;-80
2022/06/17 14:11:39;;;;;;;4.72;2.15;;;;;;;;;;5035473;28;20032;-78
2022/06/17 14:14:20;;;;;;;9.70;2.53;;;;;;;;;;5031050;28;20322;-78
2022/06/17 14:16:54;;;;;;;4.13;2.20;;;;;;;;;;5037531;28;20059;-79
2022/06/17 14:19:26;;;;;;;5.13;2.50;;;;;;;;;;5030168;28;20022;-80
2022/06/17 14:21:53;;;;;;;8.30;2.40;;;;;;;;;;5036709;28;20090;-81
2022/06/17 14:24:43;;;;;;;4.97;2.45;;;;;;;;;;5036491;28;20334;-80
2022/06/17 14:27:29;;;;;;;5.43;2.42;;;;;;;;;;5031635;28;20088;-80
2022/06/17 14:30:16;;;;;;;5.53;2.30;;;;;;;;;;5029196;28;20049;-80
2022/06/17 14:32:49;;;;;;;6.47;2.30;;;;;;;;;;5026526;28;20057;-80
2022/06/17 14:35:47;;;;;;;6.18;2.20;;;;;;;;;;5042345;28;20055;-80
2022/06/17 14:38:18;;;;;;;4.75;2.30;;;;;;;;;;5041648;28;20359;-78
2022/06/17 14:44:01;;;;;;;4.68;2.20;;;;;;;;;;5041050;28;20380;-79
2022/06/17 14:46:27;;;;;;;8.30;2.40;;;;;;;;;;5047827;28;20037;-79
2022/06/17 14:49:31;;;;;;;7.05;2.50;;;;;;;;;;5047267;28;20048;-79
2022/06/17 14:52:19;;;;;;;4.82;2.40;;;;;;;;;;5055439;28;20022;-79
2022/06/17 14:54:44;;;;;;;6.88;2.33;;;;;;;;;;5039714;28;20217;-80
2022/06/17 14:57:19;;;;;;;5.05;2.50;;;;;;;;;;5038649;28;20034;-80
2022/06/17 14:59:47;;;;;;;7.07;2.60;;;;;;;;;;5039812;28;20423;-80
2022/06/17 15:02:15;;;;;;;8.07;2.80;;;;;;;;;;5037126;28;20037;-80
2022/06/17 15:04:45;;;;;;;5.93;2.45;;;;;;;;;;5038365;28;20455;-79
2022/06/17 15:07:24;;;;;;;6.82;2.35;;;;;;;;;;5039262;28;20039;-79
2022/06/17 15:10:00;;;;;;;5.60;2.60;;;;;;;;;;5035442;28;20025;-81
2022/06/17 15:12:37;;;;;;;5.93;2.53;;;;;;;;;;5039427;28;20158;-80
2022/06/17 15:15:13;;;;;;;6.13;2.40;;;;;;;;;;5038851;28;20025;-81
2022/06/17 15:17:44;;;;;;;5.85;2.40;;;;;;;;;;5040868;28;20101;-81
2022/06/17 15:20:26;;;;;;;7.07;2.50;;;;;;;;;;5040291;28;20187;-80
2022/06/17 15:23:25;;;;;;;9.75;2.88;;;;;;;;;;5040245;28;20029;-82
2022/06/17 15:26:12;;;;;;;6.53;2.63;;;;;;;;;;5039685;28;20025;-82
2022/06/17 15:28:40;;;;;;;6.63;2.30;;;;;;;;;;5039953;28;20260;-87
2022/06/17 15:31:12;;;;;;;8.40;2.50;;;;;;;;;;5050051;28;20317;-84
2022/06/17 15:33:38;;;;;;;7.93;2.60;;;;;;;;;;5042708;28;20107;-83
2022/06/17 15:36:04;;;;;;;8.13;2.83;;;;;;;;;;5039788;28;20030;-80